Time;durP1;ratioP1;P1;durP2;ratioP2;P2;SDS_P1;SDS_P2;PMS_P1;PMS_P2;Temp;Humidity;BMP_temperature;BMP_pressure;BME280_temperature;BME280_humidity;BME280_pressure;Samples;Min_cycle;Max_cycle;Signal;HPM_P1;HPM_P2
2022/04/18 00:00:43;;;;;;;4.70;2.17;;;;;;;5.77;48.20;96834.94;2082518;28;20237;-70
2022/04/18 00:01:44;;;;;;;3.38;1.85;;;;;;;5.98;47.68;96856.56;2087173;28;20197;-70
2022/04/18 00:02:46;;;;;;;2.70;1.85;;;;;;;6.01;47.60;96864.19;2086858;28;20196;-70
2022/04/18 00:03:48;;;;;;;4.88;2.00;;;;;;;6.01;47.77;96868.56;2084340;28;20200;-70
2022/04/18 00:04:49;;;;;;;8.55;2.78;;;;;;;6.02;47.77;96867.63;2080131;28;20235;-70
2022/04/18 00:05:51;;;;;;;2.95;1.77;;;;;;;5.77;48.68;96832.34;2070677;28;20209;-70
2022/04/18 00:06:52;;;;;;;3.13;1.83;;;;;;;5.87;49.90;96866.56;2070675;28;20294;-70
2022/04/18 00:07:54;;;;;;;2.30;1.80;;;;;;;5.67;51.47;96862.28;2070205;28;20202;-70
2022/04/18 00:08:55;;;;;;;3.83;2.60;;;;;;;5.42;52.30;96862.50;2080725;28;20209;-70
2022/04/18 00:09:57;;;;;;;3.75;2.42;;;;;;;5.25;53.28;96856.31;2085506;28;20201;-70
2022/04/18 00:10:58;;;;;;;4.13;2.20;;;;;;;5.07;54.38;96862.28;2078985;28;20232;-70
2022/04/18 00:12:00;;;;;;;4.85;2.65;;;;;;;5.02;54.46;96861.63;2080444;28;20189;-70
2022/04/18 00:13:02;;;;;;;4.05;2.38;;;;;;;4.87;55.03;96861.38;2085443;28;20724;-70
2022/04/18 00:14:04;;;;;;;4.25;2.17;;;;;;;4.84;54.88;96845.06;2084074;28;20201;-70
2022/04/18 00:15:06;;;;;;;5.70;2.10;;;;;;;4.90;55.13;96858.66;2085024;28;20193;-70
2022/04/18 00:16:07;;;;;;;4.78;1.95;;;;;;;4.94;55.10;96862.81;2084789;28;20235;-70
2022/04/18 00:17:09;;;;;;;3.05;1.85;;;;;;;4.87;54.87;96863.97;2085353;28;20204;-70
2022/04/18 00:18:11;;;;;;;4.32;2.00;;;;;;;4.73;55.72;96861.94;2086745;28;20235;-70
2022/04/18 00:19:13;;;;;;;10.57;3.05;;;;;;;4.70;56.09;96853.44;2084345;28;20199;-70
2022/04/18 00:20:15;;;;;;;6.63;2.75;;;;;;;4.45;56.88;96853.59;2085565;28;20215;-70
2022/04/18 00:21:17;;;;;;;8.30;2.85;;;;;;;4.49;57.04;96855.19;2084784;28;20202;-70
2022/04/18 00:22:18;;;;;;;5.03;2.03;;;;;;;4.64;56.68;96851.09;2084977;28;20211;-70
2022/04/18 00:23:20;;;;;;;5.95;2.60;;;;;;;4.61;56.91;96846.88;2085175;28;20197;-70
2022/04/18 00:24:21;;;;;;;4.97;2.90;;;;;;;4.55;56.77;96847.97;2086957;28;20663;-70
2022/04/18 00:25:23;;;;;;;4.55;2.53;;;;;;;4.40;57.01;96840.81;2086605;28;20203;-69
2022/04/18 00:26:24;;;;;;;4.00;2.35;;;;;;;4.33;57.01;96824.66;2084887;28;20205;-70
2022/04/18 00:27:26;;;;;;;3.47;2.05;;;;;;;4.48;57.08;96851.72;2086006;28;20200;-70
2022/04/18 00:28:27;;;;;;;8.68;2.30;;;;;;;4.49;57.05;96850.81;2087359;28;20306;-70
2022/04/18 00:29:29;;;;;;;4.25;1.92;;;;;;;4.43;57.68;96858.00;2086037;28;20215;-70
2022/04/18 00:30:30;;;;;;;4.68;2.28;;;;;;;4.41;57.45;96847.69;2084772;28;20184;-69
2022/04/18 00:31:32;;;;;;;4.57;2.30;;;;;;;4.37;57.30;96851.28;2076944;28;20208;-70
2022/04/18 00:32:35;;;;;;;4.93;2.25;;;;;;;4.47;57.13;96850.03;2077307;28;20194;-70
2022/04/18 00:33:36;;;;;;;3.97;2.47;;;;;;;4.54;56.77;96848.03;2086162;28;20200;-69
2022/04/18 00:34:38;;;;;;;4.28;2.13;;;;;;;4.58;56.24;96849.59;2085917;28;20201;-70
2022/04/18 00:35:40;;;;;;;5.20;2.40;;;;;;;4.52;56.30;96845.50;2084770;28;20221;-69
2022/04/18 00:36:41;;;;;;;6.07;2.83;;;;;;;4.47;56.31;96831.88;2083520;28;20203;-70
2022/04/18 00:37:42;;;;;;;3.30;1.70;;;;;;;4.50;56.39;96841.28;2083602;28;20691;-70
2022/04/18 00:38:44;;;;;;;7.88;2.10;;;;;;;4.43;56.50;96840.69;2084292;28;20197;-70
2022/04/18 00:39:46;;;;;;;4.40;2.42;;;;;;;4.33;56.71;96842.81;2084771;28;20700;-69
2022/04/18 00:40:48;;;;;;;2.90;2.05;;;;;;;4.35;56.40;96842.72;2077992;28;20230;-69
2022/04/18 00:41:49;;;;;;;4.32;2.08;;;;;;;4.37;56.45;96833.16;2080412;28;20211;-69
2022/04/18 00:42:51;;;;;;;3.67;2.15;;;;;;;4.40;56.70;96843.41;2086416;28;20649;-70
2022/04/18 00:43:52;;;;;;;4.55;2.40;;;;;;;4.22;56.69;96824.25;2087501;28;20669;-69
2022/04/18 00:44:54;;;;;;;4.45;1.90;;;;;;;4.44;56.71;96842.38;2087759;28;20200;-69
2022/04/18 00:45:56;;;;;;;10.45;2.08;;;;;;;4.33;56.68;96848.00;2086020;28;20228;-69
2022/04/18 00:46:57;;;;;;;4.90;2.28;;;;;;;4.29;56.98;96842.97;2085735;28;20189;-70
2022/04/18 00:48:00;;;;;;;6.85;2.08;;;;;;;4.26;57.16;96853.50;2079991;28;20793;-69
2022/04/18 00:49:01;;;;;;;4.80;2.13;;;;;;;4.23;57.09;96848.41;2080303;28;20696;-70
2022/04/18 00:50:03;;;;;;;1.73;1.45;;;;;;;4.20;57.20;96840.78;2077976;28;20200;-69
2022/04/18 00:51:09;;;;;;;4.75;1.90;;;;;;;4.22;57.52;96844.16;2085365;28;20262;-69
2022/04/18 00:52:11;;;;;;;3.70;2.10;;;;;;;4.24;57.54;96837.16;2085739;28;20200;-69
2022/04/18 00:53:13;;;;;;;4.00;1.77;;;;;;;4.12;57.74;96843.66;2077410;28;20208;-69
2022/04/18 00:54:14;;;;;;;4.20;2.10;;;;;;;4.14;57.81;96840.09;2077183;28;20204;-69
2022/04/18 00:55:16;;;;;;;7.20;2.15;;;;;;;4.06;57.77;96818.84;2083808;28;20201;-70
2022/04/18 00:56:18;;;;;;;4.93;2.05;;;;;;;4.18;57.04;96814.06;2082727;28;20205;-70
2022/04/18 00:57:21;;;;;;;3.50;2.10;;;;;;;4.17;56.76;96810.63;2085588;28;20390;-70
2022/04/18 00:58:22;;;;;;;5.20;1.92;;;;;;;4.16;56.64;96804.59;2082742;28;20270;-70
2022/04/18 00:59:24;;;;;;;3.92;2.38;;;;;;;4.28;56.69;96829.19;2083918;28;20197;-69
2022/04/18 01:00:25;;;;;;;2.50;1.75;;;;;;;4.21;56.95;96827.72;2085216;28;20203;-69
2022/04/18 01:01:27;;;;;;;6.50;2.20;;;;;;;4.03;57.52;96824.13;2086925;28;20208;-69
2022/04/18 01:02:29;;;;;;;3.40;1.98;;;;;;;3.96;57.73;96822.69;2086105;28;20659;-69
2022/04/18 01:03:31;;;;;;;2.85;1.73;;;;;;;4.03;57.69;96826.72;2087532;28;20247;-69
2022/04/18 01:04:32;;;;;;;2.83;1.45;;;;;;;3.95;58.04;96831.34;2086044;28;20233;-66
2022/04/18 01:05:34;;;;;;;5.35;2.22;;;;;;;3.93;58.32;96822.78;2083734;28;20221;-66
2022/04/18 01:06:36;;;;;;;9.80;2.60;;;;;;;3.90;58.13;96817.72;2084464;28;20286;-67
2022/04/18 01:07:39;;;;;;;4.60;1.80;;;;;;;3.85;57.98;96806.72;2084884;28;20197;-66
2022/04/18 01:08:42;;;;;;;5.03;2.30;;;;;;;3.86;58.52;96819.59;2085178;28;20200;-66
2022/04/18 01:09:43;;;;;;;4.80;2.22;;;;;;;3.82;58.19;96804.22;2077358;28;20865;-66
2022/04/18 01:10:45;;;;;;;4.10;2.25;;;;;;;3.83;58.53;96811.09;2073955;28;20775;-66
2022/04/18 01:11:48;;;;;;;3.25;1.90;;;;;;;3.92;58.44;96821.97;2083164;28;20207;-67
2022/04/18 01:12:50;;;;;;;3.25;1.92;;;;;;;3.77;58.26;96814.78;2084381;28;20208;-66
2022/04/18 01:13:51;;;;;;;3.70;2.20;;;;;;;3.85;58.66;96824.84;2083230;28;20297;-67
2022/04/18 01:14:53;;;;;;;3.65;1.95;;;;;;;3.78;58.51;96805.25;2083733;28;20202;-66
2022/04/18 01:15:56;;;;;;;2.95;1.98;;;;;;;3.93;58.35;96813.25;2086373;28;20581;-67
2022/04/18 01:16:58;;;;;;;4.43;2.05;;;;;;;3.92;58.31;96802.94;2084085;28;20870;-66
2022/04/18 01:17:59;;;;;;;3.72;1.77;;;;;;;3.81;58.91;96811.16;2083805;28;20570;-66
2022/04/18 01:19:01;;;;;;;4.18;2.13;;;;;;;3.75;59.23;96812.22;2082786;28;20208;-66
2022/04/18 01:20:03;;;;;;;2.67;1.90;;;;;;;3.77;59.09;96807.00;2085718;28;20203;-66
2022/04/18 01:21:05;;;;;;;3.75;1.85;;;;;;;3.87;59.07;96807.50;2086409;28;20700;-66
2022/04/18 01:22:09;;;;;;;3.33;2.20;;;;;;;3.77;58.92;96796.63;2082050;28;20193;-67
2022/04/18 01:23:11;;;;;;;3.05;2.33;;;;;;;3.65;59.51;96802.28;2084630;28;20201;-66
2022/04/18 01:29:32;;;;;;;4.18;2.83;;;;;;;3.30;60.08;96800.09;2086657;28;20369;-68
2022/04/18 01:30:34;;;;;;;2.72;1.70;;;;;;;3.28;60.49;96794.13;2085374;28;20227;-68
2022/04/18 01:31:39;;;;;;;3.38;1.92;;;;;;;3.41;60.25;96798.84;2083498;28;20550;-68
2022/04/18 01:32:41;;;;;;;3.83;2.50;;;;;;;3.42;60.37;96795.38;2085537;28;20193;-69
2022/04/18 01:33:42;;;;;;;7.78;1.88;;;;;;;3.34;60.45;96782.72;2082978;28;20588;-68
2022/04/18 01:34:44;;;;;;;4.55;2.35;;;;;;;3.44;60.24;96791.00;2085833;28;20204;-68
2022/04/18 01:35:45;;;;;;;2.97;1.52;;;;;;;3.33;60.23;96779.28;2084692;28;20221;-68
2022/04/18 01:36:47;;;;;;;6.03;2.22;;;;;;;3.36;60.71;96794.69;2083443;28;20200;-68
2022/04/18 01:37:48;;;;;;;3.90;2.00;;;;;;;3.26;60.44;96784.75;2084623;28;20224;-68
2022/04/18 01:38:50;;;;;;;3.22;2.00;;;;;;;3.41;60.54;96791.97;2085181;28;20192;-68
2022/04/18 01:39:51;;;;;;;3.22;2.05;;;;;;;3.37;60.17;96792.94;2086925;28;20192;-63
2022/04/18 01:40:53;;;;;;;3.22;2.50;;;;;;;3.41;59.89;96796.28;2086926;28;20565;-63
2022/04/18 01:41:54;;;;;;;6.95;2.30;;;;;;;3.42;59.55;96796.22;2086831;28;20200;-63
2022/04/18 01:42:56;;;;;;;4.63;2.10;;;;;;;3.24;58.84;96761.50;2086007;28;20192;-63
2022/04/18 01:43:57;;;;;;;2.70;1.80;;;;;;;3.49;59.91;96794.22;2086382;28;20211;-63
2022/04/18 01:45:02;;;;;;;3.50;1.80;;;;;;;3.48;59.75;96798.56;2077921;28;20229;-63
2022/04/18 01:46:03;;;;;;;7.10;2.00;;;;;;;3.47;60.06;96791.72;2084559;28;20780;-63
2022/04/18 01:47:05;;;;;;;3.85;1.73;;;;;;;3.54;59.99;96789.72;2084945;28;20258;-63
2022/04/18 01:48:07;;;;;;;4.40;2.00;;;;;;;3.62;59.62;96800.66;2084982;28;20196;-63
2022/04/18 01:49:08;;;;;;;4.32;2.35;;;;;;;3.59;60.06;96810.28;2082881;28;20295;-63
2022/04/18 01:50:10;;;;;;;4.40;1.92;;;;;;;3.42;60.21;96800.56;2085656;28;20552;-63
2022/04/18 01:51:11;;;;;;;6.80;2.60;;;;;;;3.18;61.02;96800.56;2066785;28;20888;-63
2022/04/18 01:52:15;;;;;;;8.73;2.58;;;;;;;2.95;61.87;96791.84;2076142;28;20213;-63
2022/04/18 01:53:17;;;;;;;3.45;2.38;;;;;;;2.85;62.37;96803.44;2086716;28;20199;-63
2022/04/18 01:54:18;;;;;;;3.67;2.10;;;;;;;2.73;62.68;96801.28;2083735;28;20702;-62
2022/04/18 01:55:19;;;;;;;5.13;2.38;;;;;;;2.59;63.45;96801.75;2085684;28;20196;-62
2022/04/18 01:56:21;;;;;;;6.75;2.95;;;;;;;2.41;64.20;96807.50;2081757;28;20207;-63
2022/04/18 01:57:22;;;;;;;5.70;2.33;;;;;;;2.53;63.35;96801.97;2082604;28;20759;-63
2022/04/18 01:58:24;;;;;;;3.45;2.40;;;;;;;2.57;63.50;96799.22;2085677;28;20205;-63
2022/04/18 01:59:25;;;;;;;5.72;2.30;;;;;;;2.62;63.49;96793.03;2085777;28;20199;-62
2022/04/18 02:00:27;;;;;;;5.72;2.50;;;;;;;2.58;63.38;96795.72;2084510;28;20200;-63
2022/04/18 02:01:29;;;;;;;3.13;1.95;;;;;;;2.70;63.22;96791.03;2084073;28;20204;-62
2022/04/18 02:02:31;;;;;;;4.78;2.30;;;;;;;2.90;62.68;96788.59;2085122;28;20243;-63
2022/04/18 02:03:33;;;;;;;10.88;2.88;;;;;;;2.85;62.79;96787.06;2082801;28;20591;-62
2022/04/18 02:04:35;;;;;;;2.30;1.85;;;;;;;2.68;63.00;96766.97;2084172;28;20699;-63
2022/04/18 02:05:36;;;;;;;3.25;2.00;;;;;;;2.73;63.37;96788.34;2084564;28;20213;-63
2022/04/18 02:06:38;;;;;;;3.22;2.20;;;;;;;2.82;63.16;96788.00;2083308;28;20197;-63
2022/04/18 02:07:39;;;;;;;3.40;2.58;;;;;;;2.91;62.90;96787.69;2084387;28;20208;-63
2022/04/18 02:08:41;;;;;;;2.70;2.00;;;;;;;2.93;62.58;96783.31;2086267;28;20207;-63
2022/04/18 02:09:42;;;;;;;4.60;2.33;;;;;;;2.93;62.47;96785.06;2083302;28;20392;-63
2022/04/18 02:10:44;;;;;;;4.18;2.25;;;;;;;2.75;62.92;96779.63;2081517;28;20248;-62
2022/04/18 02:11:45;;;;;;;4.82;2.10;;;;;;;2.75;63.01;96782.22;2081481;28;20636;-63
2022/04/18 02:12:47;;;;;;;7.95;2.70;;;;;;;2.73;63.19;96775.41;2081271;28;20223;-63
2022/04/18 02:13:48;;;;;;;3.80;2.15;;;;;;;2.75;63.19;96778.78;2086503;28;20719;-63
2022/04/18 02:14:50;;;;;;;3.00;1.92;;;;;;;2.76;63.05;96772.69;2082126;28;20192;-63
2022/04/18 02:15:52;;;;;;;5.72;2.30;;;;;;;2.72;62.74;96765.94;2080624;28;20281;-62
2022/04/18 02:16:54;;;;;;;6.78;2.00;;;;;;;2.82;62.71;96776.81;2083446;28;20204;-63
2022/04/18 02:17:55;;;;;;;3.85;2.20;;;;;;;2.85;62.88;96777.56;2083917;28;20197;-63
2022/04/18 02:18:57;;;;;;;4.38;2.28;;;;;;;2.76;63.08;96773.56;2079023;28;20205;-63
2022/04/18 02:19:59;;;;;;;4.93;2.53;;;;;;;2.57;63.63;96760.41;2079663;28;20208;-62
2022/04/18 02:21:00;;;;;;;4.13;2.28;;;;;;;2.60;63.68;96764.63;2082450;28;20584;-63
2022/04/18 02:22:02;;;;;;;5.20;2.35;;;;;;;2.55;63.73;96759.63;2084070;28;20209;-62
2022/04/18 02:23:03;;;;;;;5.32;2.50;;;;;;;2.63;64.01;96774.06;2084524;28;20207;-62
2022/04/18 02:24:05;;;;;;;4.32;2.05;;;;;;;2.58;63.41;96772.44;2083052;28;20193;-62
2022/04/18 02:25:08;;;;;;;4.30;2.58;;;;;;;2.63;63.24;96771.47;2085285;28;20726;-62
2022/04/18 02:26:10;;;;;;;4.38;2.00;;;;;;;2.64;63.25;96778.31;2082347;28;20228;-63
2022/04/18 02:27:11;;;;;;;3.38;2.30;;;;;;;2.57;63.62;96769.94;2082187;28;20197;-62
2022/04/18 02:28:13;;;;;;;5.30;2.20;;;;;;;2.70;63.27;96770.34;2083220;28;20251;-62
2022/04/18 02:29:14;;;;;;;4.63;2.47;;;;;;;2.58;63.87;96774.19;2083687;28;20296;-62
2022/04/18 02:30:16;;;;;;;4.70;2.50;;;;;;;2.43;64.34;96767.81;2083586;28;20208;-67
2022/04/18 02:31:18;;;;;;;4.00;2.25;;;;;;;2.32;64.62;96775.06;2082416;28;20201;-67
2022/04/18 02:33:39;;;;;;;4.53;2.20;;;;;;;2.24;64.80;96769.31;2083754;28;20208;-67
2022/04/18 02:34:41;;;;;;;2.80;2.13;;;;;;;2.29;64.73;96772.56;2086999;28;20193;-68
2022/04/18 02:35:42;;;;;;;2.35;1.80;;;;;;;2.27;64.66;96771.78;2084417;28;20748;-68
2022/04/18 02:36:44;;;;;;;3.55;2.47;;;;;;;2.26;64.75;96762.38;2084444;28;20197;-68
2022/04/18 02:37:46;;;;;;;10.25;2.50;;;;;;;2.27;65.03;96770.03;2084708;28;20200;-68
2022/04/18 02:38:47;;;;;;;2.78;2.03;;;;;;;2.28;64.70;96761.41;2086239;28;20203;-67
2022/04/18 02:39:49;;;;;;;3.88;2.45;;;;;;;2.24;64.96;96764.16;2087756;28;20196;-68
2022/04/18 02:40:50;;;;;;;5.57;2.55;;;;;;;2.28;64.81;96764.00;2081728;28;20229;-67
2022/04/18 02:41:52;;;;;;;3.55;2.00;;;;;;;2.36;64.64;96756.81;2082842;28;20219;-67
2022/04/18 02:42:53;;;;;;;4.60;2.00;;;;;;;2.11;64.38;96735.28;2084549;28;20608;-67
2022/04/18 02:43:55;;;;;;;4.65;2.08;;;;;;;2.30;64.51;96764.78;2083225;28;20731;-67
2022/04/18 02:44:56;;;;;;;4.93;2.58;;;;;;;2.26;64.76;96752.03;2084250;28;20199;-68
2022/04/18 02:45:58;;;;;;;3.28;2.40;;;;;;;2.24;65.10;96769.31;2085729;28;20216;-68
2022/04/18 02:47:00;;;;;;;4.63;2.40;;;;;;;2.25;64.96;96768.41;2083807;28;20540;-67
2022/04/18 02:48:01;;;;;;;7.20;2.55;;;;;;;2.26;64.56;96764.94;2079324;28;20197;-67
2022/04/18 02:49:03;;;;;;;4.78;2.67;;;;;;;2.26;64.89;96768.38;2079311;28;20200;-67
2022/04/18 02:50:06;;;;;;;4.93;2.08;;;;;;;2.18;65.23;96762.63;2083088;28;20205;-67
2022/04/18 02:51:07;;;;;;;6.82;2.30;;;;;;;2.09;65.45;96757.72;2082724;28;20221;-68
2022/04/18 02:52:09;;;;;;;3.00;2.20;;;;;;;2.10;65.32;96760.28;2084075;28;20189;-67
2022/04/18 02:53:10;;;;;;;5.78;2.28;;;;;;;2.22;65.35;96768.53;2085768;28;20201;-67
2022/04/18 02:54:12;;;;;;;3.60;2.30;;;;;;;2.29;64.85;96765.66;2086155;28;20262;-67
2022/04/18 02:55:13;;;;;;;3.88;1.88;;;;;;;2.17;65.09;96759.16;2083935;28;20197;-67
2022/04/18 02:56:15;;;;;;;2.90;2.15;;;;;;;2.20;65.07;96765.16;2084091;28;20196;-67
2022/04/18 02:57:16;;;;;;;3.47;1.73;;;;;;;2.22;65.66;96758.19;2084445;28;20196;-68
2022/04/18 02:58:18;;;;;;;5.10;2.40;;;;;;;2.21;65.56;96764.25;2083320;28;20197;-67
2022/04/18 02:59:19;;;;;;;3.50;2.17;;;;;;;2.09;65.36;96763.75;2084202;28;20253;-67
2022/04/18 03:00:21;;;;;;;4.45;2.65;;;;;;;2.12;65.54;96766.25;2082483;28;20205;-67
2022/04/18 03:01:22;;;;;;;3.03;1.90;;;;;;;2.03;65.61;96758.78;2085148;28;20763;-68
2022/04/18 03:02:24;;;;;;;3.17;2.40;;;;;;;2.14;65.51;96751.53;2083706;28;20205;-67
2022/04/18 03:03:25;;;;;;;7.45;2.53;;;;;;;2.04;65.30;96739.81;2083989;28;20211;-68
2022/04/18 03:04:27;;;;;;;4.28;2.25;;;;;;;2.17;64.85;96756.56;2083323;28;20596;-67
2022/04/18 03:05:28;;;;;;;7.32;2.47;;;;;;;2.06;65.40;96755.22;2083582;28;20196;-67
2022/04/18 03:06:30;;;;;;;3.72;2.08;;;;;;;1.92;65.97;96755.69;2082848;28;20196;-67
2022/04/18 03:07:32;;;;;;;4.28;2.10;;;;;;;1.84;66.45;96757.66;2084666;28;20660;-67
2022/04/18 03:08:33;;;;;;;5.25;2.63;;;;;;;1.73;66.06;96735.63;2084966;28;20196;-67
2022/04/18 03:09:35;;;;;;;4.53;1.88;;;;;;;1.76;66.00;96740.69;2084824;28;20870;-67
2022/04/18 03:11:56;;;;;;;5.60;2.20;;;;;;;1.70;66.17;96740.88;2081400;28;20200;-67
2022/04/18 03:12:58;;;;;;;3.75;2.47;;;;;;;1.65;66.32;96750.50;2086346;28;20530;-67
2022/04/18 03:13:59;;;;;;;5.15;2.40;;;;;;;1.37;67.47;96753.06;2084682;28;20283;-67
2022/04/18 03:15:01;;;;;;;5.45;2.45;;;;;;;1.38;67.81;96747.84;2082812;28;20197;-68
2022/04/18 03:16:04;;;;;;;4.07;2.40;;;;;;;1.57;67.24;96747.31;2082044;28;20750;-67
2022/04/18 03:17:06;;;;;;;4.38;2.10;;;;;;;1.45;67.37;96724.44;2084080;28;20922;-67
2022/04/18 03:18:07;;;;;;;3.22;2.10;;;;;;;1.64;67.21;96748.81;2086696;28;20257;-67
2022/04/18 03:19:09;;;;;;;4.70;2.50;;;;;;;1.58;67.38;96749.00;2083637;28;20196;-67
2022/04/18 03:20:10;;;;;;;5.57;2.30;;;;;;;1.57;67.39;96740.41;2084832;28;20193;-67
2022/04/18 03:21:13;;;;;;;5.05;2.25;;;;;;;1.49;67.70;96736.38;2066054;28;20235;-67
2022/04/18 03:22:14;;;;;;;3.63;2.17;;;;;;;1.54;67.70;96743.06;2074925;28;20220;-67
2022/04/18 03:23:16;;;;;;;3.80;1.95;;;;;;;1.52;67.74;96734.53;2072886;28;20202;-67
2022/04/18 03:24:17;;;;;;;4.00;2.58;;;;;;;1.49;67.37;96729.47;2073021;28;20665;-67
2022/04/18 03:25:19;;;;;;;3.42;2.00;;;;;;;1.66;67.27;96736.69;2074395;28;20196;-67
2022/04/18 03:26:20;;;;;;;3.63;2.28;;;;;;;1.78;66.51;96732.88;2076701;28;20219;-67
2022/04/18 03:27:22;;;;;;;3.20;2.25;;;;;;;1.90;66.39;96742.84;2077313;28;20193;-68
2022/04/18 03:28:25;;;;;;;3.50;1.80;;;;;;;1.74;66.22;96726.13;2076922;28;20201;-67
2022/04/18 03:29:27;;;;;;;6.20;2.17;;;;;;;1.80;66.69;96740.59;2082933;28;20201;-67
2022/04/18 03:30:28;;;;;;;7.18;2.08;;;;;;;1.74;66.39;96723.53;2084627;28;20200;-67
2022/04/18 03:31:30;;;;;;;3.55;2.22;;;;;;;1.87;66.27;96735.19;2086210;28;20207;-67
2022/04/18 03:32:31;;;;;;;3.60;2.17;;;;;;;1.80;65.94;96738.00;2085833;28;20200;-67
2022/04/18 03:33:33;;;;;;;4.93;2.60;;;;;;;1.78;66.21;96735.47;2083854;28;20193;-67
2022/04/18 03:34:34;;;;;;;4.30;2.67;;;;;;;1.70;66.41;96722.78;2083733;28;20543;-67
2022/04/18 03:35:36;;;;;;;4.40;2.65;;;;;;;1.68;66.83;96724.56;2084248;28;20220;-67
2022/04/18 03:40:37;;;;;;;4.05;2.40;;;;;;;1.77;66.38;96718.28;2084341;28;20213;-67
2022/04/18 03:41:39;;;;;;;4.75;2.20;;;;;;;1.74;66.71;96719.22;2081695;28;20204;-67
2022/04/18 03:42:40;;;;;;;5.38;2.72;;;;;;;1.72;66.95;96710.66;2084845;28;20212;-67
2022/04/18 03:43:42;;;;;;;3.00;2.40;;;;;;;1.75;66.94;96709.75;2086344;28;20232;-67
2022/04/18 03:44:46;;;;;;;5.18;2.00;;;;;;;1.87;66.42;96716.25;2086821;28;20612;-67
2022/04/18 03:45:48;;;;;;;4.38;2.38;;;;;;;1.88;66.61;96716.22;2085745;28;20216;-67
2022/04/18 03:46:49;;;;;;;5.95;2.80;;;;;;;1.86;66.89;96718.00;2081605;28;20245;-67
2022/04/18 03:47:51;;;;;;;4.47;2.50;;;;;;;1.81;66.32;96699.22;2080845;28;20197;-67
2022/04/18 03:48:53;;;;;;;4.28;2.70;;;;;;;1.96;66.55;96710.78;2085864;28;20200;-67
2022/04/18 03:49:55;;;;;;;5.85;3.15;;;;;;;2.13;65.70;96711.06;2085862;28;20200;-67
2022/04/18 03:50:57;;;;;;;4.90;2.67;;;;;;;2.07;65.56;96705.25;2085479;28;20580;-67
2022/04/18 03:51:58;;;;;;;5.55;2.65;;;;;;;2.05;65.44;96704.47;2086488;28;20196;-67
2022/04/18 03:53:00;;;;;;;4.25;2.28;;;;;;;2.06;65.62;96703.56;2086307;28;20211;-67
2022/04/18 03:54:01;;;;;;;4.20;2.28;;;;;;;2.10;65.22;96700.84;2085013;28;20687;-66
2022/04/18 03:55:03;;;;;;;6.57;2.85;;;;;;;1.96;65.23;96677.19;2086604;28;20207;-67
2022/04/18 03:56:05;;;;;;;3.53;2.60;;;;;;;2.17;64.84;96699.72;2084800;28;20236;-67
2022/04/18 03:57:06;;;;;;;5.03;2.67;;;;;;;2.14;65.14;96699.84;2087682;28;20205;-66
2022/04/18 03:58:08;;;;;;;6.13;2.90;;;;;;;1.95;65.01;96678.94;2086128;28;20201;-66
2022/04/18 03:59:09;;;;;;;4.68;2.70;;;;;;;2.14;65.29;96699.84;2084025;28;20208;-66
2022/04/18 04:00:11;;;;;;;5.68;3.17;;;;;;;2.08;65.80;96712.97;2085785;28;20200;-65
2022/04/18 04:01:13;;;;;;;6.93;2.28;;;;;;;1.97;66.17;96715.91;2086335;28;20192;-66
2022/04/18 04:02:20;;;;;;;4.03;2.50;;;;;;;1.72;66.87;96702.94;2084071;28;20295;-67
2022/04/18 04:03:22;;;;;;;3.75;2.55;;;;;;;1.68;67.06;96709.09;2085519;28;20284;-67
2022/04/18 04:04:23;;;;;;;4.57;2.42;;;;;;;1.61;66.82;96710.19;2084519;28;20200;-66
2022/04/18 04:05:25;;;;;;;4.10;2.35;;;;;;;1.51;67.45;96712.22;2086438;28;20210;-67
2022/04/18 04:06:26;;;;;;;3.53;2.30;;;;;;;1.44;67.45;96720.19;2087143;28;20201;-62
2022/04/18 04:07:28;;;;;;;3.47;2.28;;;;;;;1.49;67.60;96718.28;2085980;28;20728;-62
2022/04/18 04:08:31;;;;;;;10.10;3.38;;;;;;;1.28;67.40;96684.53;2084316;28;20570;-63
2022/04/18 04:09:34;;;;;;;6.00;2.50;;;;;;;1.34;67.62;96707.56;2087004;28;20196;-62
2022/04/18 04:10:36;;;;;;;5.20;3.20;;;;;;;1.30;67.62;96703.38;2075539;28;20218;-62
2022/04/18 04:11:37;;;;;;;9.75;2.70;;;;;;;1.29;67.51;96722.31;2076245;28;20209;-62
2022/04/18 04:12:39;;;;;;;4.45;2.47;;;;;;;1.19;67.86;96695.13;2083803;28;20204;-63
2022/04/18 04:13:40;;;;;;;5.45;2.45;;;;;;;1.20;68.06;96714.88;2084369;28;20193;-62
2022/04/18 04:14:42;;;;;;;5.05;2.50;;;;;;;0.96;68.31;96708.69;2084293;28;20204;-62
2022/04/18 04:15:44;;;;;;;7.07;3.25;;;;;;;0.86;68.88;96694.38;2087274;28;20220;-62
2022/04/18 04:16:45;;;;;;;3.88;2.70;;;;;;;1.07;68.65;96716.97;2086660;28;20204;-62
2022/04/18 04:17:47;;;;;;;3.33;2.13;;;;;;;0.99;68.97;96706.88;2077099;28;20565;-62
2022/04/18 04:18:53;;;;;;;3.65;2.35;;;;;;;1.03;68.92;96711.94;2077171;28;20247;-62
2022/04/18 04:19:57;;;;;;;7.25;2.63;;;;;;;1.02;68.87;96712.81;2081840;28;20193;-62
2022/04/18 04:20:58;;;;;;;3.35;2.45;;;;;;;0.97;69.21;96708.63;2084203;28;20721;-62
2022/04/18 04:22:00;;;;;;;5.25;2.53;;;;;;;1.02;68.84;96712.81;2085499;28;20192;-63
2022/04/18 04:23:01;;;;;;;6.53;3.13;;;;;;;1.15;68.88;96715.00;2083221;28;20213;-62
2022/04/18 04:24:03;;;;;;;10.40;2.70;;;;;;;1.01;68.58;96711.97;2085752;28;20197;-62
2022/04/18 04:25:05;;;;;;;14.40;3.25;;;;;;;0.92;68.91;96714.81;2086059;28;20200;-62
2022/04/18 04:26:07;;;;;;;4.35;2.20;;;;;;;0.90;69.39;96706.28;2084160;28;20216;-62
2022/04/18 04:27:09;;;;;;;8.13;3.03;;;;;;;0.85;69.41;96708.16;2079989;28;20211;-62
2022/04/18 04:28:11;;;;;;;3.97;2.70;;;;;;;0.77;69.58;96722.09;2080532;28;20193;-63
2022/04/18 04:29:12;;;;;;;4.65;2.60;;;;;;;0.70;70.22;96722.31;2086072;28;20696;-63
2022/04/18 04:30:14;;;;;;;3.70;2.33;;;;;;;0.77;70.00;96723.84;2085148;28;20200;-63
2022/04/18 04:31:15;;;;;;;4.53;2.50;;;;;;;0.71;69.99;96724.03;2085731;28;20197;-62
2022/04/18 04:32:17;;;;;;;6.72;2.50;;;;;;;0.68;69.60;96708.63;2076912;28;20275;-62
2022/04/18 04:33:18;;;;;;;4.85;2.38;;;;;;;0.77;69.74;96718.69;2075597;28;20205;-62
2022/04/18 04:34:20;;;;;;;5.00;2.10;;;;;;;0.83;70.05;96728.84;2084382;28;20204;-63
2022/04/18 04:35:21;;;;;;;4.18;2.33;;;;;;;0.78;69.94;96728.97;2079025;28;20197;-62
2022/04/18 04:36:23;;;;;;;4.20;2.78;;;;;;;0.63;70.43;96720.78;2080231;28;20208;-62
2022/04/18 04:37:24;;;;;;;3.65;2.45;;;;;;;0.67;70.18;96720.69;2084987;28;20640;-63
2022/04/18 04:38:26;;;;;;;5.25;3.25;;;;;;;0.77;70.24;96723.84;2083614;28;20197;-62
2022/04/18 04:39:28;;;;;;;4.80;2.30;;;;;;;0.71;70.00;96730.00;2084286;28;20217;-62
2022/04/18 04:40:30;;;;;;;3.90;2.80;;;;;;;0.69;69.54;96716.31;2084856;28;20201;-62
2022/04/18 04:41:32;;;;;;;4.95;2.83;;;;;;;0.71;69.37;96703.41;2084400;28;20626;-62
2022/04/18 04:42:33;;;;;;;4.10;2.60;;;;;;;0.79;69.51;96722.91;2085995;28;20249;-62
2022/04/18 04:43:34;;;;;;;2.35;2.10;;;;;;;0.86;68.86;96713.25;2085265;28;20207;-62
2022/04/18 04:44:36;;;;;;;5.32;2.50;;;;;;;0.92;68.71;96718.25;2086059;28;20192;-62
2022/04/18 04:45:38;;;;;;;4.20;2.47;;;;;;;0.91;69.00;96710.56;2086774;28;20528;-62
2022/04/18 04:46:43;;;;;;;4.38;2.83;;;;;;;0.96;68.70;96717.28;2083426;28;20220;-62
2022/04/18 04:47:44;;;;;;;4.15;2.42;;;;;;;0.97;68.40;96711.22;2085250;28;20303;-62
2022/04/18 04:48:46;;;;;;;5.22;2.80;;;;;;;0.88;68.88;96700.31;2084571;28;20197;-62
2022/04/18 04:49:47;;;;;;;5.00;2.67;;;;;;;0.94;68.54;96694.97;2076956;28;20204;-62
2022/04/18 04:50:49;;;;;;;7.72;2.67;;;;;;;1.07;68.74;96708.38;2075757;28;20845;-62
2022/04/18 04:51:51;;;;;;;5.10;2.67;;;;;;;0.98;69.18;96696.59;2085289;28;20220;-62
2022/04/18 04:52:52;;;;;;;3.50;2.45;;;;;;;1.06;69.05;96697.22;2084507;28;20273;-62
2022/04/18 04:53:54;;;;;;;2.85;2.15;;;;;;;0.98;68.51;96663.06;2086262;28;20197;-62
2022/04/18 04:54:56;;;;;;;6.10;2.38;;;;;;;1.24;68.47;96698.41;2087115;28;20193;-62
2022/04/18 04:55:58;;;;;;;5.15;2.45;;;;;;;1.26;68.20;96686.31;2076381;28;20225;-63
2022/04/18 04:56:59;;;;;;;4.70;2.95;;;;;;;1.35;68.51;96698.94;2075775;28;20204;-63
2022/04/18 04:58:02;;;;;;;5.45;2.70;;;;;;;1.17;68.33;96671.09;2086355;28;20868;-63
2022/04/18 04:59:04;;;;;;;5.65;2.60;;;;;;;1.29;68.55;96685.34;2086806;28;20201;-63
2022/04/18 05:00:06;;;;;;;5.00;2.65;;;;;;;1.20;68.17;96673.59;2086138;28;20249;-63
2022/04/18 05:01:07;;;;;;;4.97;2.58;;;;;;;1.19;68.42;96688.22;2079498;28;20663;-63
2022/04/18 05:02:09;;;;;;;4.82;2.55;;;;;;;0.95;68.70;96674.31;2079076;28;20226;-63
2022/04/18 05:03:10;;;;;;;9.82;2.40;;;;;;;0.93;69.62;96677.84;2086041;28;20209;-63
2022/04/18 05:04:12;;;;;;;5.45;2.42;;;;;;;1.08;69.26;96695.44;2085048;28;20208;-63
2022/04/18 05:05:14;;;;;;;9.13;2.92;;;;;;;1.16;69.71;96702.97;2086033;28;20203;-63
2022/04/18 05:06:15;;;;;;;5.40;2.78;;;;;;;1.07;69.02;96667.94;2078826;28;20194;-63